Time;durP1;ratioP1;P1;durP2;ratioP2;P2;SDS_P1;SDS_P2;PMS_P1;PMS_P2;Temp;Humidity;BMP_temperature;BMP_pressure;BME280_temperature;BME280_humidity;BME280_pressure;Samples;Min_cycle;Max_cycle;Signal;HPM_P1;HPM_P2
2022/05/17 00:00:28;;;;;;;4.72;1.80;;;;;;;15.62;63.64;101889.91;5012408;28;20033;-79
2022/05/17 00:02:53;;;;;;;6.72;2.17;;;;;;;15.58;63.50;101883.03;5012343;28;20049;-79
2022/05/17 00:05:19;;;;;;;4.68;1.90;;;;;;;15.53;63.64;101889.31;5011923;28;20050;-79
2022/05/17 00:07:44;;;;;;;4.60;2.35;;;;;;;15.42;64.12;101889.63;5012074;28;20022;-79
2022/05/17 00:10:11;;;;;;;4.10;2.13;;;;;;;15.31;64.77;101901.31;5012310;28;20072;-79
2022/05/17 00:12:37;;;;;;;4.57;2.20;;;;;;;15.26;65.23;101891.84;5010659;28;20075;-79
2022/05/17 00:15:04;;;;;;;5.38;2.38;;;;;;;15.22;65.49;101893.69;5010759;28;20029;-79
2022/05/17 00:17:30;;;;;;;3.92;2.22;;;;;;;15.19;65.47;101893.81;5011922;28;20520;-79
2022/05/17 00:19:55;;;;;;;4.82;2.38;;;;;;;15.21;64.59;101905.06;5012052;28;20022;-79
2022/05/17 00:22:20;;;;;;;3.15;1.90;;;;;;;15.15;65.43;101894.78;5010493;28;20018;-79
2022/05/17 00:24:46;;;;;;;3.70;2.10;;;;;;;15.11;64.70;101899.25;5011884;28;20050;-79
2022/05/17 00:27:11;;;;;;;6.35;2.75;;;;;;;15.05;65.65;101898.53;5011880;28;20022;-79
2022/05/17 00:29:37;;;;;;;5.40;2.63;;;;;;;15.00;66.14;101889.06;5011858;28;20030;-79
2022/05/17 00:32:03;;;;;;;6.30;2.90;;;;;;;14.95;65.93;101896.19;5011879;28;20480;-79
2022/05/17 00:34:29;;;;;;;5.93;2.78;;;;;;;14.88;66.02;101894.63;5011832;28;20053;-79
2022/05/17 00:36:54;;;;;;;7.40;3.70;;;;;;;14.81;66.37;101891.31;5011417;28;20037;-79
2022/05/17 00:39:20;;;;;;;7.80;3.75;;;;;;;14.78;66.95;101882.69;5011390;28;20026;-79
2022/05/17 00:41:45;;;;;;;6.28;3.90;;;;;;;14.78;66.88;101885.31;5010187;28;20032;-79
2022/05/17 00:46:55;;;;;;;7.15;3.75;;;;;;;14.75;66.66;101877.50;5011414;28;20534;-79
2022/05/17 00:49:28;;;;;;;8.38;3.60;;;;;;;14.69;66.51;101882.00;5010946;28;20034;-79
2022/05/17 00:51:58;;;;;;;6.95;3.88;;;;;;;14.68;66.01;101874.22;5011529;28;20030;-79
2022/05/17 00:54:24;;;;;;;6.32;3.60;;;;;;;14.66;66.29;101882.09;5011240;28;20028;-79
2022/05/17 00:57:14;;;;;;;5.40;3.33;;;;;;;14.62;65.99;101885.69;5011025;28;20148;-79
2022/05/17 00:59:39;;;;;;;7.50;3.35;;;;;;;14.61;65.78;101880.47;4980708;28;20065;-79
2022/05/17 01:02:10;;;;;;;5.43;2.90;;;;;;;14.51;65.57;101875.47;5011216;28;20018;-79
2022/05/17 01:04:38;;;;;;;4.70;2.60;;;;;;;14.44;66.82;101880.91;5010804;28;20038;-79
2022/05/17 01:07:19;;;;;;;7.40;2.88;;;;;;;14.38;65.89;101877.53;5011060;28;20201;-79
2022/05/17 01:09:44;;;;;;;5.78;2.80;;;;;;;14.34;66.94;101867.19;5010129;28;20053;-79
2022/05/17 01:12:10;;;;;;;5.90;2.75;;;;;;;14.32;67.62;101877.72;5010903;28;20052;-79
2022/05/17 01:17:22;;;;;;;5.43;2.42;;;;;;;14.28;68.10;101873.44;5010703;28;20192;-79
2022/05/17 01:19:48;;;;;;;4.50;2.40;;;;;;;14.27;67.36;101869.94;5011157;28;20034;-79
2022/05/17 01:22:13;;;;;;;4.10;2.35;;;;;;;14.27;67.91;101874.34;5010306;28;20030;-79
2022/05/17 01:24:39;;;;;;;5.47;2.47;;;;;;;14.23;67.77;101872.69;5010181;28;20041;-79
2022/05/17 01:27:15;;;;;;;5.13;2.25;;;;;;;14.17;67.56;101876.31;5010771;28;20109;-79
2022/05/17 01:29:44;;;;;;;6.35;2.10;;;;;;;14.14;67.78;101879.00;5010846;28;20539;-79
2022/05/17 01:32:11;;;;;;;4.18;1.85;;;;;;;14.13;68.30;101871.19;5010317;28;20028;-79
2022/05/17 01:34:37;;;;;;;4.43;2.10;;;;;;;14.15;68.54;101858.94;5010571;28;20034;-79
2022/05/17 01:37:04;;;;;;;5.50;2.00;;;;;;;14.11;68.92;101869.47;5010368;28;20555;-79
2022/05/17 01:39:31;;;;;;;5.95;2.00;;;;;;;14.11;68.99;101872.09;5010583;28;20060;-79
2022/05/17 01:41:56;;;;;;;4.43;2.03;;;;;;;14.10;68.81;101873.00;5010528;28;20020;-79
2022/05/17 01:44:23;;;;;;;5.18;2.17;;;;;;;14.13;69.17;101877.28;5010525;28;20108;-79
2022/05/17 01:46:48;;;;;;;5.13;1.92;;;;;;;14.14;68.96;101857.22;5010186;28;20499;-79
2022/05/17 01:49:14;;;;;;;4.28;2.00;;;;;;;14.15;69.35;101865.03;5010321;28;20033;-79
2022/05/17 01:51:39;;;;;;;5.38;2.08;;;;;;;14.20;70.27;101865.78;5010657;28;20030;-79
2022/05/17 01:54:04;;;;;;;7.25;2.65;;;;;;;14.23;70.29;101864.84;5010037;28;20071;-79
2022/05/17 01:56:30;;;;;;;4.25;2.72;;;;;;;14.29;70.48;101859.44;5010344;28;20014;-79
2022/05/17 01:58:55;;;;;;;4.05;2.25;;;;;;;14.35;69.06;101864.50;5010113;28;20095;-79
2022/05/17 02:01:21;;;;;;;5.93;2.58;;;;;;;14.38;69.01;101864.44;5010571;28;20102;-79
2022/05/17 02:03:46;;;;;;;5.65;2.33;;;;;;;14.37;69.51;101875.81;5010251;28;20605;-79
2022/05/17 02:06:11;;;;;;;5.90;2.35;;;;;;;14.39;69.65;101870.56;5010158;28;20040;-79
2022/05/17 02:08:37;;;;;;;4.28;2.42;;;;;;;14.40;69.41;101867.88;5010151;28;20021;-79
2022/05/17 02:11:03;;;;;;;4.13;2.40;;;;;;;14.40;69.46;101875.75;5009647;28;20025;-79
2022/05/17 02:13:29;;;;;;;5.55;2.30;;;;;;;14.41;69.30;101872.22;5010218;28;20109;-79
2022/05/17 02:15:55;;;;;;;4.97;2.20;;;;;;;14.41;69.51;101872.22;5010554;28;20030;-79
2022/05/17 02:18:20;;;;;;;4.82;2.60;;;;;;;14.41;69.64;101877.47;5009876;28;20077;-79
2022/05/17 02:20:45;;;;;;;7.00;2.80;;;;;;;14.40;70.49;101873.13;5009831;28;20041;-79
2022/05/17 02:23:11;;;;;;;8.15;2.90;;;;;;;14.46;70.80;101879.13;5010051;28;20053;-79
2022/05/17 02:25:36;;;;;;;5.38;2.80;;;;;;;14.50;70.58;101873.75;5010121;28;20038;-79
2022/05/17 02:28:03;;;;;;;7.85;3.20;;;;;;;14.53;70.99;101876.28;5009847;28;20104;-79
2022/05/17 02:30:29;;;;;;;7.47;3.15;;;;;;;14.59;70.78;101880.50;5010122;28;20018;-79
2022/05/17 02:32:55;;;;;;;8.02;3.58;;;;;;;14.61;70.59;101878.72;5009940;28;20108;-79
2022/05/17 02:35:20;;;;;;;9.48;3.25;;;;;;;14.63;70.12;101882.16;5011242;28;20049;-79
2022/05/17 02:37:45;;;;;;;9.45;3.40;;;;;;;14.68;70.52;101877.69;5013703;28;20048;-79
2022/05/17 02:40:11;;;;;;;5.15;3.08;;;;;;;14.70;70.62;101878.50;5013731;28;20029;-79
2022/05/17 02:42:36;;;;;;;6.70;2.90;;;;;;;14.72;70.24;101881.94;5013775;28;20452;-79
2022/05/17 02:45:03;;;;;;;5.82;2.92;;;;;;;14.74;70.39;101886.28;5013771;28;20037;-79
2022/05/17 02:47:28;;;;;;;6.38;3.20;;;;;;;14.71;70.57;101880.22;5013064;28;20100;-79
2022/05/17 02:49:54;;;;;;;5.75;2.80;;;;;;;14.71;70.39;101885.44;5013623;28;20030;-79
2022/05/17 02:52:19;;;;;;;5.57;2.90;;;;;;;14.70;70.20;101888.97;5013908;28;20040;-79
2022/05/17 02:54:44;;;;;;;8.27;3.20;;;;;;;14.69;70.29;101884.63;5013686;28;20472;-79
2022/05/17 02:57:10;;;;;;;8.13;3.30;;;;;;;14.69;70.87;101886.41;5013061;28;20014;-79
2022/05/17 02:59:35;;;;;;;10.68;3.05;;;;;;;14.66;71.42;101884.69;5012926;28;20049;-79
2022/05/17 03:02:01;;;;;;;6.47;2.90;;;;;;;14.67;71.41;101886.44;5011735;28;20021;-79
2022/05/17 03:04:27;;;;;;;6.68;3.05;;;;;;;14.65;71.19;101890.84;5013620;28;20084;-79
2022/05/17 03:06:53;;;;;;;8.57;3.47;;;;;;;14.61;71.55;101891.81;5013088;28;20088;-79
2022/05/17 03:09:19;;;;;;;7.78;3.20;;;;;;;14.58;71.72;101894.50;5013255;28;20025;-79
2022/05/17 03:11:44;;;;;;;8.00;3.00;;;;;;;14.56;71.70;101898.91;5013231;28;20095;-79
2022/05/17 03:14:10;;;;;;;6.55;3.03;;;;;;;14.56;71.40;101901.53;5013035;28;20061;-78
2022/05/17 03:16:37;;;;;;;9.10;3.50;;;;;;;14.55;71.36;101899.81;5012634;28;20022;-79
2022/05/17 03:19:03;;;;;;;6.95;3.05;;;;;;;14.54;71.02;101895.47;5013249;28;20033;-79
2022/05/17 03:21:28;;;;;;;7.05;3.00;;;;;;;14.52;70.95;101892.91;5013072;28;20021;-79
2022/05/17 03:23:54;;;;;;;7.57;3.40;;;;;;;14.50;71.07;101896.47;5013145;28;20045;-79
2022/05/17 03:26:20;;;;;;;9.98;3.05;;;;;;;14.49;70.99;101892.97;5012494;28;20030;-79
2022/05/17 03:28:45;;;;;;;5.65;3.00;;;;;;;14.47;71.14;101891.31;5012866;28;20387;-79
2022/05/17 03:31:11;;;;;;;7.53;3.03;;;;;;;14.45;71.11;101893.09;5012874;28;20022;-79
2022/05/17 03:33:37;;;;;;;7.90;2.97;;;;;;;14.42;70.98;101897.50;5012655;28;20091;-79
2022/05/17 03:36:04;;;;;;;7.32;2.88;;;;;;;14.39;71.26;101892.34;5012640;28;20843;-79
2022/05/17 03:38:29;;;;;;;7.20;2.90;;;;;;;14.37;71.30;101886.28;5012728;28;20160;-79
2022/05/17 03:40:55;;;;;;;5.57;3.15;;;;;;;14.36;71.74;101887.19;5012685;28;20109;-79
2022/05/17 03:43:20;;;;;;;6.85;3.70;;;;;;;14.35;72.18;101890.69;5012052;28;20026;-79
2022/05/17 03:45:47;;;;;;;5.32;3.22;;;;;;;14.34;71.37;101895.97;5012281;28;20038;-79
2022/05/17 03:48:12;;;;;;;9.60;3.20;;;;;;;14.29;72.00;101898.72;5012430;28;20077;-79
2022/05/17 03:50:38;;;;;;;6.63;3.20;;;;;;;14.24;72.58;101896.22;5012426;28;20117;-79
2022/05/17 03:53:04;;;;;;;6.97;2.78;;;;;;;14.25;73.09;101890.09;5012056;28;20064;-79
2022/05/17 03:55:29;;;;;;;6.63;3.55;;;;;;;14.27;73.10;101892.66;5012501;28;20056;-79
2022/05/17 03:57:55;;;;;;;5.32;3.20;;;;;;;14.28;72.83;101894.38;5012707;28;20545;-79
2022/05/17 04:00:20;;;;;;;6.55;3.30;;;;;;;14.29;73.00;101900.47;5012327;28;20021;-79
2022/05/17 04:02:46;;;;;;;10.25;3.20;;;;;;;14.27;73.01;101890.03;5012104;28;20465;-79
2022/05/17 04:05:12;;;;;;;11.48;4.45;;;;;;;14.30;72.77;101899.56;5012481;28;20022;-79
2022/05/17 04:07:38;;;;;;;7.97;3.20;;;;;;;14.33;72.31;101904.72;5011652;28;20026;-79
2022/05/17 04:10:05;;;;;;;6.53;3.30;;;;;;;14.33;72.39;101895.13;5011634;28;20029;-79
2022/05/17 04:12:30;;;;;;;8.07;3.30;;;;;;;14.35;72.41;101901.16;5011896;28;20018;-79
2022/05/17 04:14:56;;;;;;;6.15;3.40;;;;;;;14.36;72.50;101900.28;5012110;28;20029;-79
2022/05/17 04:17:22;;;;;;;6.97;3.40;;;;;;;14.35;72.90;101895.94;5012104;28;20026;-79
2022/05/17 04:19:47;;;;;;;9.65;3.90;;;;;;;14.35;72.81;101909.03;5011843;28;20034;-79
2022/05/17 04:22:12;;;;;;;7.45;3.80;;;;;;;14.34;73.34;101912.56;5012140;28;20025;-79
2022/05/17 04:24:41;;;;;;;10.25;4.07;;;;;;;14.37;72.98;101914.22;5011790;28;20469;-79
2022/05/17 04:27:06;;;;;;;7.18;3.53;;;;;;;14.40;72.73;101916.78;5010794;28;20373;-79
2022/05/17 04:29:32;;;;;;;8.43;3.90;;;;;;;14.41;72.59;101915.88;5011660;28;20024;-79
2022/05/17 04:31:57;;;;;;;7.88;3.50;;;;;;;14.44;72.71;101922.78;5012277;28;20029;-79
2022/05/17 04:34:22;;;;;;;8.00;3.80;;;;;;;14.45;72.66;101919.28;5011688;28;20440;-79
2022/05/17 04:36:48;;;;;;;9.05;4.10;;;;;;;14.48;72.91;101924.44;5011870;28;20113;-79
2022/05/17 04:39:13;;;;;;;9.63;4.03;;;;;;;14.50;73.12;101914.81;5011720;28;20038;-79
2022/05/17 04:41:39;;;;;;;12.68;6.80;;;;;;;14.54;73.06;101919.03;5011575;28;20021;-79
2022/05/17 04:44:04;;;;;;;12.80;6.05;;;;;;;14.59;72.87;101918.94;5011544;28;20353;-79
2022/05/17 04:46:29;;;;;;;11.52;5.82;;;;;;;14.63;72.73;101917.94;5009481;28;20036;-79
2022/05/17 04:48:55;;;;;;;15.30;5.57;;;;;;;14.66;71.99;101918.75;5010325;28;20049;-79
2022/05/17 04:51:20;;;;;;;10.27;4.70;;;;;;;14.71;72.47;101924.75;5010793;28;20072;-79
2022/05/17 04:53:45;;;;;;;13.60;4.75;;;;;;;14.75;72.77;101927.28;5010744;28;21306;-79
2022/05/17 04:56:11;;;;;;;7.80;4.43;;;;;;;14.79;72.66;101924.53;5011066;28;20032;-79
2022/05/17 04:58:37;;;;;;;10.70;4.82;;;;;;;14.82;72.94;101924.47;5010885;28;20025;-79
2022/05/17 05:01:04;;;;;;;10.63;4.18;;;;;;;14.86;72.86;101926.13;5012512;28;20032;-79
2022/05/17 05:03:30;;;;;;;11.98;4.35;;;;;;;14.90;72.69;101926.88;5011142;28;20014;-79
2022/05/17 05:05:55;;;;;;;10.93;4.75;;;;;;;14.93;73.00;101921.56;5011158;28;20088;-79
2022/05/17 05:08:21;;;;;;;11.02;5.32;;;;;;;15.00;72.58;101928.38;5011007;28;20446;-79
2022/05/17 05:10:47;;;;;;;14.82;6.78;;;;;;;15.03;72.33;101933.50;5010904;28;20451;-78
2022/05/17 05:13:16;;;;;;;14.40;7.47;;;;;;;15.08;72.38;101929.91;4994637;28;20105;-79
2022/05/17 05:15:42;;;;;;;19.25;6.93;;;;;;;15.12;72.31;101931.56;5009708;28;20033;-79
2022/05/17 05:18:07;;;;;;;17.08;6.90;;;;;;;15.15;72.57;101932.31;5009701;28;20040;-79
2022/05/17 05:20:34;;;;;;;14.68;6.55;;;;;;;15.20;72.41;101940.03;5010708;28;20018;-79
2022/05/17 05:23:00;;;;;;;11.30;5.65;;;;;;;15.24;72.76;101943.47;5009544;28;20018;-79
2022/05/17 05:25:25;;;;;;;12.45;5.55;;;;;;;15.27;72.54;101941.63;5011108;28;20219;-79
2022/05/17 05:27:50;;;;;;;12.15;5.47;;;;;;;15.31;72.47;101937.13;5011540;28;20497;-79
2022/05/17 05:30:16;;;;;;;10.40;5.22;;;;;;;15.35;72.20;101935.31;5012105;28;20036;-79
2022/05/17 05:32:42;;;;;;;10.23;4.85;;;;;;;15.40;72.58;101943.88;5009482;28;20022;-79
2022/05/17 05:35:08;;;;;;;8.70;4.50;;;;;;;15.44;72.29;101950.75;5010524;28;20521;-79
2022/05/17 05:37:33;;;;;;;10.80;4.35;;;;;;;15.48;72.20;101950.63;5010787;28;20022;-81
2022/05/17 05:39:59;;;;;;;11.35;4.22;;;;;;;15.54;71.86;101954.84;5010221;28;20055;-79
2022/05/17 05:42:24;;;;;;;8.23;4.55;;;;;;;15.60;71.96;101954.66;5010347;28;20512;-79
2022/05/17 05:44:49;;;;;;;8.70;4.55;;;;;;;15.67;71.35;101957.13;5010116;28;20037;-79
2022/05/17 05:47:15;;;;;;;9.32;4.45;;;;;;;15.72;72.03;101952.56;5010230;28;20034;-79
2022/05/17 05:49:40;;;;;;;12.10;5.03;;;;;;;15.79;71.61;101959.38;5010344;28;20671;-78
2022/05/17 05:52:06;;;;;;;13.95;4.75;;;;;;;15.85;71.80;101964.47;5010052;28;20033;-79
2022/05/17 05:54:31;;;;;;;9.32;4.35;;;;;;;15.93;71.17;101966.88;5010430;28;20243;-79
2022/05/17 05:57:00;;;;;;;7.30;4.57;;;;;;;15.98;70.88;101964.94;5010401;28;20378;-79
2022/05/17 05:59:28;;;;;;;9.23;4.47;;;;;;;16.06;71.17;101964.72;5010591;28;20049;-79
2022/05/17 06:01:53;;;;;;;10.82;4.55;;;;;;;16.15;71.05;101967.06;5010084;28;20084;-79
2022/05/17 06:04:19;;;;;;;14.68;4.45;;;;;;;16.24;70.50;101972.00;5010231;28;20026;-79
2022/05/17 06:06:44;;;;;;;13.88;4.43;;;;;;;16.33;68.93;101975.28;5010175;28;20377;-79
2022/05/17 06:09:09;;;;;;;15.10;5.05;;;;;;;16.39;68.88;101968.06;5008721;28;20067;-79
2022/05/17 06:11:34;;;;;;;10.23;5.00;;;;;;;16.46;68.28;101971.34;5009860;28;20393;-79
2022/05/17 06:14:00;;;;;;;9.45;4.40;;;;;;;16.56;68.94;101976.31;5009922;28;20024;-79
2022/05/17 06:16:25;;;;;;;10.02;4.38;;;;;;;16.61;68.72;101974.38;5010031;28;20219;-79
2022/05/17 06:18:51;;;;;;;9.50;4.03;;;;;;;16.64;67.69;101975.16;5010218;28;20608;-79
2022/05/17 06:21:16;;;;;;;8.65;4.38;;;;;;;16.68;67.44;101976.75;5010062;28;20072;-79
2022/05/17 06:23:41;;;;;;;8.60;4.05;;;;;;;16.72;67.10;101981.91;5010183;28;20034;-79
2022/05/17 06:26:06;;;;;;;7.85;3.92;;;;;;;16.76;67.11;101983.53;5009963;28;20425;-79
2022/05/17 06:28:32;;;;;;;10.30;3.88;;;;;;;16.78;66.97;101977.28;5009656;28;20040;-79
2022/05/17 06:30:57;;;;;;;12.13;3.90;;;;;;;16.83;67.22;101983.25;5009965;28;20541;-79
2022/05/17 06:33:23;;;;;;;9.63;3.85;;;;;;;16.88;67.99;101987.50;5009422;28;20037;-79
2022/05/17 06:35:50;;;;;;;8.60;4.10;;;;;;;16.89;68.15;101995.31;5009879;28;20038;-79
2022/05/17 06:38:16;;;;;;;9.90;3.90;;;;;;;16.90;67.72;101990.94;5009654;28;20030;-79
2022/05/17 06:40:41;;;;;;;8.13;3.75;;;;;;;16.90;67.68;101991.78;5009424;28;20088;-79
2022/05/17 06:43:07;;;;;;;8.25;3.88;;;;;;;16.92;67.26;101994.34;5009935;28;20063;-79
2022/05/17 06:45:33;;;;;;;9.20;4.05;;;;;;;16.93;67.33;101993.44;5009671;28;20504;-79
2022/05/17 06:48:00;;;;;;;9.48;4.47;;;;;;;16.95;67.98;102000.41;5009267;28;20054;-79
2022/05/17 06:50:26;;;;;;;9.13;4.13;;;;;;;16.99;66.72;102004.63;5008554;28;20377;-79
2022/05/17 06:52:51;;;;;;;12.90;4.35;;;;;;;16.99;66.63;102009.06;5009559;28;20033;-79
2022/05/17 06:55:17;;;;;;;7.28;4.22;;;;;;;16.99;64.84;102011.69;5009731;28;20022;-79
2022/05/17 06:57:43;;;;;;;8.40;3.90;;;;;;;16.99;65.86;102009.06;5009390;28;20028;-79
2022/05/17 07:00:11;;;;;;;9.40;4.20;;;;;;;16.98;66.84;102010.84;5009717;28;20026;-79
2022/05/17 07:02:37;;;;;;;7.82;4.05;;;;;;;17.00;66.40;102018.66;5009567;28;20022;-79
2022/05/17 07:05:03;;;;;;;10.50;4.30;;;;;;;17.01;65.47;102011.63;5009643;28;20026;-79
2022/05/17 07:07:28;;;;;;;8.93;4.50;;;;;;;17.02;64.77;102013.34;5009357;28;20022;-79
2022/05/17 07:15:22;;;;;;;10.70;4.63;;;;;;;17.09;65.70;102015.69;5009581;28;20398;-79
2022/05/17 07:17:47;;;;;;;9.68;4.63;;;;;;;17.09;66.81;102013.06;5008174;28;20025;-79
2022/05/17 07:20:13;;;;;;;10.85;4.60;;;;;;;17.09;66.01;102009.59;5009651;28;20109;-79
2022/05/17 07:22:39;;;;;;;10.27;4.47;;;;;;;17.10;67.68;102014.78;5012691;28;20024;-79
2022/05/17 07:25:04;;;;;;;8.23;4.22;;;;;;;17.13;67.77;102025.22;5012801;28;20026;-79
2022/05/17 07:27:30;;;;;;;12.05;4.55;;;;;;;17.19;68.23;102020.66;5012960;28;20092;-79
2022/05/17 07:29:55;;;;;;;14.02;4.78;;;;;;;17.23;68.76;102028.38;5012810;28;20388;-79
2022/05/17 07:32:20;;;;;;;8.65;4.53;;;;;;;17.27;69.14;102023.88;5012752;28;20479;-79
2022/05/17 07:34:47;;;;;;;13.00;4.65;;;;;;;17.29;69.69;102029.94;5011869;28;20052;-79
2022/05/17 07:37:13;;;;;;;11.23;4.35;;;;;;;17.32;69.69;102031.63;5011552;28;20116;-79
2022/05/17 07:39:39;;;;;;;8.25;4.55;;;;;;;17.33;68.98;102031.53;5012956;28;20120;-79
2022/05/17 07:42:06;;;;;;;12.90;5.10;;;;;;;17.35;68.73;102039.38;5012531;28;20048;-79
2022/05/17 07:44:32;;;;;;;10.50;4.88;;;;;;;17.36;69.36;102031.44;5012404;28;20400;-79
2022/05/17 07:46:58;;;;;;;10.65;4.78;;;;;;;17.37;68.59;102035.78;5012509;28;20042;-79
2022/05/17 07:49:23;;;;;;;10.57;4.68;;;;;;;17.37;69.25;102033.16;5012754;28;20075;-79
2022/05/17 07:51:48;;;;;;;8.07;4.78;;;;;;;17.37;70.34;102022.66;5012580;28;20104;-80
2022/05/17 07:54:14;;;;;;;8.38;4.95;;;;;;;17.41;71.00;102029.53;5012449;28;20037;-79
2022/05/17 07:56:39;;;;;;;9.80;5.22;;;;;;;17.42;71.86;102019.84;5012512;28;20022;-79
2022/05/17 07:59:04;;;;;;;10.25;5.18;;;;;;;17.43;72.08;102022.41;5011056;28;20536;-79
2022/05/17 08:01:30;;;;;;;11.15;5.35;;;;;;;17.45;72.72;102022.38;5012322;28;20033;-80
2022/05/17 08:03:55;;;;;;;12.02;5.63;;;;;;;17.41;72.47;102016.38;5012003;28;20038;-79
2022/05/17 08:06:20;;;;;;;8.65;4.88;;;;;;;17.41;72.84;102019.00;5012132;28;20053;-79
2022/05/17 08:08:46;;;;;;;11.23;5.65;;;;;;;17.40;72.79;102024.28;5012083;28;20400;-79
2022/05/17 08:11:11;;;;;;;9.93;5.55;;;;;;;17.42;73.71;102025.09;5012261;28;20099;-79
2022/05/17 08:13:38;;;;;;;10.02;5.45;;;;;;;17.42;73.84;102018.06;5011878;28;20520;-80
2022/05/17 08:16:04;;;;;;;9.15;5.07;;;;;;;17.44;73.30;102020.66;5010240;28;20527;-80
2022/05/17 08:18:30;;;;;;;7.60;4.90;;;;;;;17.47;73.27;102022.31;5011896;28;20069;-80
2022/05/17 08:20:56;;;;;;;8.93;4.47;;;;;;;17.50;74.63;102024.81;5012096;28;20060;-79
2022/05/17 08:23:21;;;;;;;9.23;4.53;;;;;;;17.54;72.91;102027.28;5011995;28;20030;-80
2022/05/17 08:28:30;;;;;;;6.68;4.38;;;;;;;17.68;75.07;102037.31;5011568;28;20095;-79
2022/05/17 08:30:55;;;;;;;6.93;4.50;;;;;;;17.72;73.38;102033.66;5011930;28;20030;-79
2022/05/17 08:33:23;;;;;;;8.73;4.50;;;;;;;17.73;72.00;102024.84;5009835;28;20448;-79
2022/05/17 08:36:00;;;;;;;9.35;3.67;;;;;;;17.73;70.09;102024.84;5010411;28;20038;-79
2022/05/17 08:38:40;;;;;;;7.80;3.40;;;;;;;17.73;70.70;102029.25;5010411;28;20029;-79
2022/05/17 08:41:12;;;;;;;6.97;3.38;;;;;;;17.72;70.94;102028.41;5011715;28;20100;-79
2022/05/17 08:43:49;;;;;;;8.50;3.13;;;;;;;17.72;70.61;102024.91;5011271;28;20036;-79
2022/05/17 08:46:17;;;;;;;6.50;3.30;;;;;;;17.71;70.55;102029.31;5011653;28;20061;-79
2022/05/17 08:48:55;;;;;;;6.32;3.35;;;;;;;17.70;71.77;102035.50;5011288;28;20034;-79
2022/05/17 08:51:49;;;;;;;10.13;3.45;;;;;;;17.70;69.98;102032.00;5011477;28;20025;-79
2022/05/17 08:54:23;;;;;;;8.20;3.17;;;;;;;17.66;71.52;102028.63;5011231;28;20115;-79
2022/05/17 08:56:56;;;;;;;5.63;3.10;;;;;;;17.65;71.18;102033.94;5010678;28;20052;-79
2022/05/17 08:59:23;;;;;;;6.65;3.05;;;;;;;17.62;72.36;102037.53;5011102;28;20036;-79
2022/05/17 09:01:55;;;;;;;5.03;2.83;;;;;;;17.60;71.18;102044.63;5010854;28;20045;-79
2022/05/17 09:04:24;;;;;;;6.45;2.80;;;;;;;17.57;71.54;102042.97;5010916;28;20604;-79
2022/05/17 09:07:14;;;;;;;7.72;3.00;;;;;;;17.56;71.52;102037.78;5010619;28;20026;-79
2022/05/17 09:10:24;;;;;;;5.75;2.70;;;;;;;17.57;70.12;102036.84;5011247;28;20108;-79
2022/05/17 09:12:54;;;;;;;7.85;2.90;;;;;;;17.57;69.95;102023.72;4987646;28;20132;-79
2022/05/17 09:15:20;;;;;;;6.45;3.10;;;;;;;17.63;70.03;102031.34;5010954;28;20056;-79
2022/05/17 09:17:47;;;;;;;8.82;3.30;;;;;;;17.69;71.12;102025.88;5010643;28;20018;-79
2022/05/17 09:20:18;;;;;;;6.68;3.17;;;;;;;17.72;70.11;102022.25;5009678;28;20140;-79
2022/05/17 09:22:43;;;;;;;7.37;3.20;;;;;;;17.75;70.29;102020.41;5010493;28;20030;-79
2022/05/17 09:25:20;;;;;;;6.15;3.00;;;;;;;17.79;69.64;102012.38;5011055;28;20030;-79
2022/05/17 09:27:49;;;;;;;6.82;2.83;;;;;;;17.85;69.86;102012.97;5010957;28;20056;-79
2022/05/17 09:30:23;;;;;;;5.53;2.88;;;;;;;17.88;69.17;102012.88;5010689;28;20428;-79
2022/05/17 09:33:19;;;;;;;9.48;2.90;;;;;;;17.94;68.63;102009.16;5010196;28;20022;-79
2022/05/17 09:36:00;;;;;;;6.63;2.80;;;;;;;18.04;68.77;102010.56;5010369;28;20655;-79
2022/05/17 09:38:34;;;;;;;7.53;2.70;;;;;;;18.14;68.41;102007.56;5010794;28;20036;-79
2022/05/17 09:41:00;;;;;;;7.25;3.10;;;;;;;18.20;67.67;102007.31;5009470;28;20041;-79
2022/05/17 09:44:00;;;;;;;6.05;2.92;;;;;;;18.28;67.92;102013.13;5010051;28;20120;-79
2022/05/17 09:46:34;;;;;;;7.28;3.30;;;;;;;18.36;67.74;102018.09;5010392;28;20045;-79
2022/05/17 09:52:34;;;;;;;9.23;4.15;;;;;;;18.47;66.83;101994.81;5010536;28;20096;-79
2022/05/17 09:55:09;;;;;;;8.65;4.70;;;;;;;18.51;65.99;101995.56;5010325;28;20116;-80
2022/05/17 09:57:35;;;;;;;10.52;4.53;;;;;;;18.54;66.24;101990.16;5009993;28;20029;-80
2022/05/17 10:00:12;;;;;;;8.18;4.72;;;;;;;18.58;66.25;101989.13;5009818;28;20380;-79
2022/05/17 10:02:42;;;;;;;8.48;4.38;;;;;;;18.65;67.20;101987.09;5009532;28;20026;-80
2022/05/17 10:05:26;;;;;;;9.13;4.60;;;;;;;18.77;66.96;101994.47;5008987;28;20469;-80
2022/05/17 10:07:55;;;;;;;7.70;4.07;;;;;;;18.89;67.19;101985.19;5009151;28;20040;-80
2022/05/17 10:10:25;;;;;;;6.88;4.03;;;;;;;19.05;67.23;101979.28;5009408;28;20045;-80
2022/05/17 10:12:52;;;;;;;8.80;3.90;;;;;;;19.14;65.38;101973.59;5010071;28;20129;-79
2022/05/17 10:15:19;;;;;;;7.82;3.47;;;;;;;19.28;64.30;101974.78;5009663;28;20440;-80
2022/05/17 10:17:55;;;;;;;6.35;3.67;;;;;;;19.42;64.45;101972.38;5009003;28;20559;-79
2022/05/17 10:20:27;;;;;;;6.90;2.70;;;;;;;19.52;61.51;101976.31;5009812;28;20029;-79
2022/05/17 10:22:55;;;;;;;7.00;2.92;;;;;;;19.64;61.48;101972.25;5009658;28;20088;-80
2022/05/17 10:25:41;;;;;;;10.07;3.30;;;;;;;19.79;62.74;101962.78;5010091;28;20413;-79
2022/05/17 10:28:26;;;;;;;6.97;3.60;;;;;;;19.99;62.18;101968.91;5009389;28;20030;-80
2022/05/17 10:30:57;;;;;;;7.57;3.80;;;;;;;20.07;60.43;101966.78;5008655;28;20392;-79
2022/05/17 10:33:51;;;;;;;7.13;3.50;;;;;;;20.19;62.24;101959.16;5009987;28;20018;-80
2022/05/17 10:36:52;;;;;;;6.60;3.95;;;;;;;20.33;61.69;101959.34;5009661;28;20544;-80
2022/05/17 10:39:17;;;;;;;10.38;4.13;;;;;;;20.41;59.95;101957.19;4978108;28;20100;-79
2022/05/17 10:41:43;;;;;;;8.17;3.97;;;;;;;20.48;59.59;101960.38;5008924;28;20428;-80
2022/05/17 10:44:16;;;;;;;8.48;4.03;;;;;;;20.54;60.24;101961.88;5008708;28;20288;-80
2022/05/17 10:46:48;;;;;;;7.00;4.03;;;;;;;20.54;58.88;101961.88;5008796;28;20048;-80
2022/05/17 10:49:24;;;;;;;8.20;4.53;;;;;;;20.54;59.76;101964.50;5008333;28;20480;-80
2022/05/17 10:51:56;;;;;;;8.70;4.90;;;;;;;20.50;59.78;101963.81;5008939;28;20026;-80
2022/05/17 10:54:34;;;;;;;8.45;4.97;;;;;;;20.52;60.57;101958.44;5007698;28;20480;-79
2022/05/17 10:57:35;;;;;;;11.52;5.28;;;;;;;20.51;59.85;101962.00;5009842;28;20029;-80
2022/05/17 11:00:09;;;;;;;8.00;5.03;;;;;;;20.53;59.41;101962.78;4998935;28;20452;-80
2022/05/17 11:03:12;;;;;;;11.48;5.68;;;;;;;20.56;60.77;101954.72;5007910;28;20030;-79
2022/05/17 11:06:12;;;;;;;10.52;5.72;;;;;;;20.59;60.33;101949.28;5011864;28;20077;-80
2022/05/17 11:08:56;;;;;;;10.50;5.70;;;;;;;20.59;59.57;101946.63;5012214;28;20018;-79
2022/05/17 11:11:50;;;;;;;10.38;6.00;;;;;;;20.66;60.46;101945.41;5011292;28;20040;-80
2022/05/17 11:14:35;;;;;;;12.52;6.20;;;;;;;20.76;60.34;101951.06;5011627;28;20487;-80
2022/05/17 11:17:23;;;;;;;12.25;6.15;;;;;;;20.86;59.04;101944.41;5012172;28;20033;-80
2022/05/17 11:20:04;;;;;;;9.48;5.97;;;;;;;20.94;58.83;101933.41;5012432;28;20029;-80
2022/05/17 11:22:44;;;;;;;14.00;6.80;;;;;;;21.04;59.85;101934.63;5012083;28;20084;-79
2022/05/17 11:25:28;;;;;;;7.97;5.85;;;;;;;21.12;59.32;101930.72;5012261;28;20030;-80
2022/05/17 11:28:18;;;;;;;15.15;6.03;;;;;;;21.19;59.19;101918.88;5012080;28;20040;-80
2022/05/17 11:30:52;;;;;;;11.85;6.18;;;;;;;21.17;58.11;101924.25;5011181;28;20021;-80
2022/05/17 11:33:23;;;;;;;10.45;6.78;;;;;;;21.15;57.78;101920.00;5010533;28;20022;-80
2022/05/17 11:35:53;;;;;;;;;;;;;;;21.17;59.12;101924.25;5011051;28;20036;-80
2022/05/17 11:38:36;;;;;;;8.90;5.32;;;;;;;21.19;58.85;101921.50;5011804;28;19913;-79
2022/05/17 11:41:07;;;;;;;9.23;5.00;;;;;;;21.19;56.96;101921.50;5011789;28;20026;-80
2022/05/17 11:43:41;;;;;;;8.90;4.68;;;;;;;21.22;56.26;101921.34;5011407;28;20443;-80
2022/05/17 11:46:29;;;;;;;6.63;4.18;;;;;;;21.26;57.79;101907.03;5010818;28;20025;-80
2022/05/17 11:49:12;;;;;;;8.45;4.53;;;;;;;21.31;56.69;101905.00;5010290;28;20092;-79